createdAt,value
2017-11-21T00:02:17.355Z,100304.09
2017-11-21T00:04:44.223Z,100301.59
2017-11-21T00:07:11.147Z,100305.33
2017-11-21T00:09:38.297Z,100297.39
2017-11-21T00:12:06.486Z,100299.81
2017-11-21T00:14:33.399Z,100299.16
2017-11-21T00:17:00.820Z,100297.75
2017-11-21T00:19:27.661Z,100307.05
2017-11-21T00:21:55.227Z,100294.97
2017-11-21T00:24:22.731Z,100299.48
2017-11-21T00:26:50.089Z,100301.13
2017-11-21T00:29:17.492Z,100302.88
2017-11-21T00:31:44.867Z,100300.27
2017-11-21T00:34:12.740Z,100297.92
2017-11-21T00:36:41.397Z,100297.82
2017-11-21T00:39:09.088Z,100291.09
2017-11-21T00:41:36.018Z,100294.36
2017-11-21T00:44:03.629Z,100289.04
2017-11-21T00:46:30.490Z,100284.84
2017-11-21T00:48:58.578Z,100286.19
2017-11-21T00:51:26.490Z,100286.28
2017-11-21T00:53:54.149Z,100292.70
2017-11-21T00:56:20.969Z,100295.80
2017-11-21T00:58:47.790Z,100291.50
2017-11-21T01:01:14.634Z,100295.30
2017-11-21T01:03:41.574Z,100304.97
2017-11-21T01:06:08.425Z,100300.22
2017-11-21T01:08:35.986Z,100303.04
2017-11-21T01:11:02.821Z,100308.84
2017-11-21T01:13:29.617Z,100306.05
2017-11-21T01:15:56.462Z,100308.66
2017-11-21T01:18:23.299Z,100309.61
2017-11-21T01:20:50.134Z,100310.49
2017-11-21T01:23:17.017Z,100307.39
2017-11-21T01:25:43.846Z,100310.86
2017-11-21T01:28:11.445Z,100312.60
2017-11-21T01:30:38.371Z,100318.97
2017-11-21T01:33:06.043Z,100315.50
2017-11-21T01:35:32.864Z,100313.78
2017-11-21T01:37:59.726Z,100314.64
2017-11-21T01:40:26.567Z,100316.17
2017-11-21T01:42:53.392Z,100319.58
2017-11-21T01:45:20.977Z,100319.53
2017-11-21T01:47:48.559Z,100319.89
2017-11-21T01:50:16.114Z,100324.92
2017-11-21T01:52:42.967Z,100327.87
2017-11-21T01:55:09.784Z,100325.20
2017-11-21T01:57:36.606Z,100319.24
2017-11-21T02:00:03.454Z,100324.77
2017-11-21T02:02:30.279Z,100324.43
2017-11-21T02:04:57.862Z,100324.00
2017-11-21T02:07:24.697Z,100328.42
2017-11-21T02:09:51.541Z,100326.64
2017-11-21T02:12:19.112Z,100329.92
2017-11-21T02:14:46.745Z,100328.42
2017-11-21T02:17:13.588Z,100329.16
2017-11-21T02:19:40.500Z,100320.69
2017-11-21T02:22:08.114Z,100316.84
2017-11-21T02:24:35.007Z,100324.98
2017-11-21T02:27:01.905Z,100323.25
2017-11-21T02:29:28.757Z,100320.46
2017-11-21T02:31:55.665Z,100314.17
2017-11-21T02:34:22.567Z,100318.07
2017-11-21T02:36:49.447Z,100322.27
2017-11-21T02:39:16.347Z,100322.27
2017-11-21T02:41:43.255Z,100321.69
2017-11-21T02:44:10.144Z,100321.51
2017-11-21T02:46:37.745Z,100326.35
2017-11-21T02:49:05.372Z,100323.68
2017-11-21T02:51:32.339Z,100315.20
2017-11-21T02:53:59.306Z,100331.10
2017-11-21T02:56:26.181Z,100321.48
2017-11-21T02:58:53.093Z,100322.37
2017-11-21T03:01:19.981Z,100321.08
2017-11-21T03:03:46.844Z,100322.70
2017-11-21T03:06:13.691Z,100321.74
2017-11-21T03:08:40.553Z,100326.76
2017-11-21T03:11:07.423Z,100330.19
2017-11-21T03:13:34.234Z,100324.77
2017-11-21T03:16:01.912Z,100323.89
2017-11-21T03:18:29.492Z,100313.78
2017-11-21T03:21:15.366Z,100322.02
2017-11-21T03:24:00.286Z,100321.50
2017-11-21T03:26:27.167Z,100320.72
2017-11-21T03:28:54.048Z,100325.80
2017-11-21T03:31:20.917Z,100327.77
2017-11-21T03:33:47.855Z,100329.02
2017-11-21T03:36:14.734Z,100332.30
2017-11-21T03:38:41.640Z,100328.77
2017-11-21T03:41:09.209Z,100328.73
2017-11-21T03:43:36.042Z,100332.27
2017-11-21T03:46:02.957Z,100332.25
2017-11-21T03:48:29.814Z,100329.88
2017-11-21T03:50:56.692Z,100335.82
2017-11-21T03:53:23.540Z,100335.52
2017-11-21T03:55:50.415Z,100329.83
2017-11-21T03:58:17.252Z,100331.39
2017-11-21T04:00:59.813Z,100326.55
2017-11-21T04:03:26.652Z,100332.08
2017-11-21T04:05:53.582Z,100339.64
2017-11-21T04:08:20.418Z,100337.22
2017-11-21T04:10:47.284Z,100337.65
2017-11-21T04:13:14.163Z,100340.98
2017-11-21T04:15:41.011Z,100332.05
2017-11-21T04:18:07.869Z,100334.02
2017-11-21T04:20:34.713Z,100333.64
2017-11-21T04:23:01.596Z,100334.20
2017-11-21T04:25:28.483Z,100329.61
2017-11-21T04:27:56.112Z,100340.09
2017-11-21T04:30:22.977Z,100337.98
2017-11-21T04:32:49.825Z,100342.17
2017-11-21T04:35:16.665Z,100340.17
2017-11-21T04:37:43.552Z,100341.50
2017-11-21T04:40:10.395Z,100340.21
2017-11-21T04:42:37.288Z,100343.81
2017-11-21T04:45:04.130Z,100347.91
2017-11-21T04:47:30.998Z,100343.07
2017-11-21T04:49:57.850Z,100344.48
2017-11-21T04:52:24.699Z,100345.41
2017-11-21T04:54:51.539Z,100339.97
2017-11-21T04:57:18.408Z,100331.09
2017-11-21T04:59:46.004Z,100336.83
2017-11-21T05:02:12.912Z,100333.39
2017-11-21T05:04:39.739Z,100333.71
2017-11-21T05:07:06.589Z,100331.86
2017-11-21T05:09:33.481Z,100321.53
2017-11-21T05:12:00.348Z,100318.84
2017-11-21T05:14:27.169Z,100331.22
2017-11-21T05:16:54.040Z,100334.58
2017-11-21T05:19:20.891Z,100332.41
2017-11-21T05:21:47.760Z,100335.84
2017-11-21T05:24:14.674Z,100333.05
2017-11-21T05:26:41.536Z,100336.77
2017-11-21T05:29:08.432Z,100334.83
2017-11-21T05:31:35.329Z,100340.30
2017-11-21T05:34:02.162Z,100338.16
2017-11-21T05:36:28.988Z,100345.72
2017-11-21T05:38:55.864Z,100345.84
2017-11-21T05:41:23.442Z,100344.81
2017-11-21T05:43:51.900Z,100348.00
2017-11-21T05:46:18.782Z,100340.80
2017-11-21T05:48:45.633Z,100336.81
2017-11-21T05:51:12.550Z,100334.15
2017-11-21T05:53:39.452Z,100338.27
2017-11-21T05:56:06.298Z,100339.34
2017-11-21T05:58:33.227Z,100336.44
2017-11-21T06:01:00.116Z,100330.76
2017-11-21T06:03:26.954Z,100332.81
2017-11-21T06:05:53.827Z,100337.38
2017-11-21T06:08:20.699Z,100346.16
2017-11-21T06:10:47.595Z,100337.05
2017-11-21T06:13:14.456Z,100339.56
2017-11-21T06:15:41.370Z,100341.34
2017-11-21T06:18:08.242Z,100338.70
2017-11-21T06:20:35.102Z,100337.11
2017-11-21T06:23:01.953Z,100339.69
2017-11-21T06:25:28.821Z,100338.11
2017-11-21T06:27:57.985Z,100332.41
2017-11-21T06:30:25.572Z,100336.44
2017-11-21T06:32:52.423Z,100347.93
2017-11-21T06:35:19.243Z,100347.27
2017-11-21T06:37:48.491Z,100347.06
2017-11-21T06:40:15.656Z,100347.80
2017-11-21T06:42:42.584Z,100348.59
2017-11-21T06:45:09.478Z,100353.64
2017-11-21T06:47:36.355Z,100351.88
2017-11-21T06:50:03.246Z,100355.97
2017-11-21T06:52:30.093Z,100352.97
2017-11-21T06:54:57.666Z,100355.92
2017-11-21T06:57:24.534Z,100354.98
2017-11-21T06:59:51.422Z,100354.30
2017-11-21T07:02:18.267Z,100351.30
2017-11-21T07:04:47.252Z,100356.59
2017-11-21T07:07:14.101Z,100355.09
2017-11-21T07:09:41.000Z,100358.71
2017-11-21T07:12:08.601Z,100363.80
2017-11-21T07:14:35.489Z,100367.94
2017-11-21T07:17:02.354Z,100372.72
2017-11-21T07:19:29.191Z,100375.31
2017-11-21T07:21:56.044Z,100376.20
2017-11-21T07:24:22.888Z,100371.89
2017-11-21T07:26:50.549Z,100368.04
2017-11-21T07:29:18.126Z,100376.09
2017-11-21T07:31:45.008Z,100381.97
2017-11-21T07:34:12.632Z,100380.83
2017-11-21T07:36:39.497Z,100381.60
2017-11-21T07:39:06.368Z,100381.62
2017-11-21T07:41:33.251Z,100375.97
2017-11-21T07:44:00.103Z,100383.91
2017-11-21T07:46:26.977Z,100379.42
2017-11-21T07:48:53.885Z,100374.65
2017-11-21T07:51:20.766Z,100375.38
2017-11-21T07:53:47.601Z,100375.25
2017-11-21T07:56:14.452Z,100373.69
2017-11-21T07:58:41.317Z,100374.98
2017-11-21T08:01:08.180Z,100376.70
2017-11-21T08:03:35.062Z,100376.95
2017-11-21T08:06:01.970Z,100384.56
2017-11-21T08:08:28.834Z,100381.08
2017-11-21T08:10:55.780Z,100378.86
2017-11-21T08:13:22.677Z,100377.32
2017-11-21T08:15:50.345Z,100383.34
2017-11-21T08:18:17.992Z,100384.34
2017-11-21T08:20:44.871Z,100382.16
2017-11-21T08:23:11.767Z,100382.73
2017-11-21T08:25:38.673Z,100382.94
2017-11-21T08:28:05.571Z,100393.73
2017-11-21T08:30:32.450Z,100393.64
2017-11-21T08:32:59.316Z,100391.41
2017-11-21T08:35:26.207Z,100387.35
2017-11-21T08:37:53.164Z,100393.73
2017-11-21T08:40:20.057Z,100389.90
2017-11-21T08:42:46.960Z,100387.59
2017-11-21T08:45:13.815Z,100392.28
2017-11-21T08:47:41.413Z,100396.95
2017-11-21T08:50:08.278Z,100399.35
2017-11-21T08:52:35.140Z,100404.20
2017-11-21T08:55:02.008Z,100409.23
2017-11-21T08:57:28.892Z,100410.39
2017-11-21T08:59:55.743Z,100418.64
2017-11-21T09:02:22.572Z,100413.24
2017-11-21T09:04:50.162Z,100422.22
2017-11-21T09:07:17.027Z,100423.26
2017-11-21T09:09:43.908Z,100435.62
2017-11-21T09:12:10.793Z,100435.55
2017-11-21T09:14:37.682Z,100433.52
2017-11-21T09:17:05.289Z,100427.88
2017-11-21T09:19:32.133Z,100430.33
2017-11-21T09:21:59.723Z,100433.92
2017-11-21T09:24:26.580Z,100437.70
2017-11-21T09:26:53.424Z,100432.23
2017-11-21T09:29:21.012Z,100426.19
2017-11-21T09:31:50.395Z,100426.23
2017-11-21T09:34:17.525Z,100410.73
2017-11-21T09:36:44.383Z,100415.00
2017-11-21T09:39:11.243Z,100411.98
2017-11-21T09:41:38.083Z,100410.77
2017-11-21T09:44:05.646Z,100415.50
2017-11-21T09:46:32.482Z,100406.03
2017-11-21T09:48:59.306Z,100401.87
2017-11-21T09:51:26.150Z,100395.46
2017-11-21T09:53:52.989Z,100400.24
2017-11-21T09:56:20.581Z,100404.53
2017-11-21T09:58:48.179Z,100404.18
2017-11-21T10:01:15.699Z,100397.91
2017-11-21T10:03:42.536Z,100399.36
2017-11-21T10:06:09.418Z,100397.89
2017-11-21T10:08:36.315Z,100397.03
2017-11-21T10:11:03.960Z,100401.89
2017-11-21T10:13:30.824Z,100404.59
2017-11-21T10:15:57.686Z,100393.80
2017-11-21T10:18:24.578Z,100391.64
2017-11-21T10:20:52.250Z,100389.88
2017-11-21T10:23:19.146Z,100388.27
2017-11-21T10:25:46.049Z,100383.58
2017-11-21T10:28:12.915Z,100384.16
2017-11-21T10:30:39.841Z,100387.91
2017-11-21T10:33:06.773Z,100378.05
2017-11-21T10:35:34.409Z,100380.52
2017-11-21T10:38:01.290Z,100384.14
2017-11-21T10:40:28.214Z,100381.62
2017-11-21T10:42:55.096Z,100386.35
2017-11-21T10:45:21.990Z,100383.14
2017-11-21T10:47:48.859Z,100381.99
2017-11-21T10:50:16.457Z,100381.27
2017-11-21T10:52:43.301Z,100378.48
2017-11-21T10:55:10.971Z,100368.59
2017-11-21T10:57:37.942Z,100371.34
2017-11-21T11:00:04.861Z,100364.38
2017-11-21T11:02:31.830Z,100368.77
2017-11-21T11:04:58.762Z,100374.92
2017-11-21T11:07:25.693Z,100369.92
2017-11-21T11:09:53.375Z,100367.34
2017-11-21T11:12:21.904Z,100358.41
2017-11-21T11:14:48.916Z,100366.72
2017-11-21T11:17:15.855Z,100363.38
2017-11-21T11:19:42.755Z,100364.99
2017-11-21T11:22:09.639Z,100353.59
2017-11-21T11:24:37.308Z,100362.87
2017-11-21T11:27:04.938Z,100367.73
2017-11-21T11:29:31.917Z,100366.08
2017-11-21T11:31:58.845Z,100368.73
2017-11-21T11:34:25.727Z,100368.66
2017-11-21T11:36:52.603Z,100359.21
2017-11-21T11:39:19.536Z,100358.12
2017-11-21T11:41:46.418Z,100356.70
2017-11-21T11:44:15.590Z,100361.42
2017-11-21T11:46:42.473Z,100359.11
2017-11-21T11:49:09.346Z,100355.11
2017-11-21T11:51:36.961Z,100354.58
2017-11-21T11:54:04.655Z,100351.08
2017-11-21T11:56:31.597Z,100328.60
2017-11-21T11:58:58.498Z,100345.33
2017-11-21T12:01:26.242Z,100350.19
2017-11-21T12:03:53.178Z,100347.94
2017-11-21T12:06:20.124Z,100347.67
2017-11-21T12:08:47.110Z,100347.58
2017-11-21T12:11:14.028Z,100351.47
2017-11-21T12:13:41.736Z,100349.63
2017-11-21T12:16:10.160Z,100353.26
2017-11-21T12:18:37.070Z,100345.33
2017-11-21T12:21:04.763Z,100351.94
2017-11-21T12:23:31.680Z,100340.47
2017-11-21T12:25:58.586Z,100333.76
2017-11-21T12:28:26.295Z,100340.14
2017-11-21T12:30:53.309Z,100330.16
2017-11-21T12:33:20.367Z,100337.95
2017-11-21T12:35:47.338Z,100330.45
2017-11-21T12:38:14.238Z,100331.67
2017-11-21T12:40:41.452Z,100337.62
2017-11-21T12:43:09.245Z,100335.14
2017-11-21T12:45:36.204Z,100328.83
2017-11-21T12:48:03.237Z,100332.67
2017-11-21T12:50:30.186Z,100332.34
2017-11-21T12:52:57.121Z,100324.07
2017-11-21T12:55:25.388Z,100328.53
2017-11-21T12:57:52.367Z,100324.56
2017-11-21T13:00:21.314Z,100324.23
2017-11-21T13:02:48.337Z,100324.83
2017-11-21T13:05:15.254Z,100328.04
2017-11-21T13:07:42.158Z,100326.48
2017-11-21T13:10:09.127Z,100330.05
2017-11-21T13:12:36.035Z,100333.98
2017-11-21T13:15:02.977Z,100331.61
2017-11-21T13:17:31.030Z,100334.81
2017-11-21T13:19:57.958Z,100334.48
2017-11-21T13:22:24.926Z,100324.80
2017-11-21T13:24:51.842Z,100332.30
2017-11-21T13:27:18.825Z,100338.44
2017-11-21T13:29:46.507Z,100338.73
2017-11-21T13:32:14.090Z,100340.05
2017-11-21T13:34:41.730Z,100338.77
2017-11-21T13:37:08.632Z,100329.98
2017-11-21T13:39:36.413Z,100323.87
2017-11-21T13:42:03.409Z,100332.48
2017-11-21T13:44:30.436Z,100326.02
2017-11-21T13:46:58.159Z,100326.54
2017-11-21T13:49:25.107Z,100320.12
2017-11-21T13:51:54.153Z,100325.48
2017-11-21T13:54:21.201Z,100320.95
2017-11-21T13:56:48.189Z,100321.61
2017-11-21T13:59:15.162Z,100321.05
2017-11-21T14:01:42.149Z,100320.58
2017-11-21T14:04:09.170Z,100329.83
2017-11-21T14:06:36.123Z,100324.21
2017-11-21T14:09:03.093Z,100325.99
2017-11-21T14:11:29.985Z,100323.67
2017-11-21T14:13:56.906Z,100326.31
2017-11-21T14:16:23.845Z,100326.25
2017-11-21T14:18:50.894Z,100326.09
2017-11-21T14:21:18.521Z,100328.77
2017-11-21T14:23:45.415Z,100344.06
2017-11-21T14:26:12.291Z,100337.55
2017-11-21T14:28:39.943Z,100341.87
2017-11-21T14:31:07.030Z,100344.64
2017-11-21T14:33:34.170Z,100342.42
2017-11-21T14:36:01.191Z,100345.63
2017-11-21T14:38:28.131Z,100335.71
2017-11-21T14:40:55.089Z,100337.20
2017-11-21T14:43:22.031Z,100345.17
2017-11-21T14:45:48.957Z,100339.96
2017-11-21T14:48:15.873Z,100337.31
2017-11-21T14:50:42.785Z,100329.88
2017-11-21T14:53:09.635Z,100327.67
2017-11-21T14:55:36.595Z,100323.67
2017-11-21T14:58:04.549Z,100332.63
2017-11-21T15:00:31.583Z,100325.59
2017-11-21T15:02:58.511Z,100332.72
2017-11-21T15:05:25.455Z,100341.99
2017-11-21T15:07:54.784Z,100331.22
2017-11-21T15:10:21.803Z,100326.97
2017-11-21T15:12:48.706Z,100329.83
2017-11-21T15:15:16.316Z,100331.52
2017-11-21T15:17:52.290Z,100336.99
2017-11-21T15:20:30.287Z,100339.70
2017-11-21T15:22:57.245Z,100340.12
2017-11-21T15:25:25.370Z,100343.72
2017-11-21T15:27:52.359Z,100345.96
2017-11-21T15:30:19.250Z,100348.14
2017-11-21T15:32:46.926Z,100336.66
2017-11-21T15:35:13.832Z,100329.66
2017-11-21T15:37:45.748Z,100337.02
2017-11-21T15:40:12.607Z,100336.16
2017-11-21T15:42:39.479Z,100337.88
2017-11-21T15:45:07.115Z,100343.42
2017-11-21T15:47:33.982Z,100336.38
2017-11-21T15:50:00.857Z,100336.11
2017-11-21T15:52:27.821Z,100335.69
2017-11-21T15:54:54.709Z,100329.17
2017-11-21T15:57:21.596Z,100328.34
2017-11-21T15:59:49.261Z,100325.15
2017-11-21T16:02:16.127Z,100325.89
2017-11-21T16:04:43.021Z,100324.91
2017-11-21T16:07:09.997Z,100329.33
2017-11-21T16:09:36.968Z,100323.38
2017-11-21T16:12:03.902Z,100329.61
2017-11-21T16:14:30.790Z,100328.99
2017-11-21T16:16:57.693Z,100331.03
2017-11-21T16:19:24.827Z,100332.34
2017-11-21T16:21:51.744Z,100336.48
2017-11-21T16:24:19.400Z,100342.97
2017-11-21T16:26:46.252Z,100340.30
2017-11-21T16:29:13.131Z,100344.81
2017-11-21T16:31:39.974Z,100347.08
2017-11-21T16:34:06.964Z,100354.14
2017-11-21T16:36:33.809Z,100353.59
2017-11-21T16:39:00.702Z,100343.49
2017-11-21T16:41:28.353Z,100347.67
2017-11-21T16:43:55.251Z,100342.30
2017-11-21T16:46:22.102Z,100342.36
2017-11-21T16:48:49.685Z,100335.91
2017-11-21T16:51:17.249Z,100342.94
2017-11-21T16:53:45.027Z,100339.05
2017-11-21T16:56:12.113Z,100330.14
2017-11-21T16:58:39.771Z,100326.30
2017-11-21T17:01:06.662Z,100336.47
2017-11-21T17:03:33.501Z,100330.69
2017-11-21T17:06:00.433Z,100338.77
2017-11-21T17:08:27.297Z,100342.70
2017-11-21T17:10:54.246Z,100346.20
2017-11-21T17:13:21.241Z,100344.20
2017-11-21T17:15:48.161Z,100352.52
2017-11-21T17:18:15.026Z,100351.17
2017-11-21T17:20:41.930Z,100347.79
2017-11-21T17:23:08.853Z,100336.65
2017-11-21T17:25:35.728Z,100335.91
2017-11-21T17:28:02.580Z,100340.48
2017-11-21T17:30:29.445Z,100328.85
2017-11-21T17:32:56.271Z,100329.38
2017-11-21T17:35:23.117Z,100329.80
2017-11-21T17:37:50.685Z,100346.10
2017-11-21T17:40:17.588Z,100350.49
2017-11-21T17:42:44.459Z,100348.38
2017-11-21T17:45:11.386Z,100342.33
2017-11-21T17:47:38.966Z,100336.44
2017-11-21T17:50:06.576Z,100325.53
2017-11-21T17:52:33.453Z,100328.64
2017-11-21T17:55:00.439Z,100325.94
2017-11-21T17:57:27.631Z,100323.45
2017-11-21T17:59:55.243Z,100326.09
2017-11-21T18:02:23.029Z,100329.59
2017-11-21T18:04:51.041Z,100322.09
2017-11-21T18:07:17.903Z,100321.79
2017-11-21T18:09:44.801Z,100315.37
2017-11-21T18:12:11.675Z,100316.84
2017-11-21T18:14:39.649Z,100318.91
2017-11-21T18:17:06.605Z,100321.12
2017-11-21T18:19:33.628Z,100331.34
2017-11-21T18:22:00.981Z,100331.86
2017-11-21T18:24:28.352Z,100328.55
2017-11-21T18:26:57.154Z,100323.11
2017-11-21T18:29:24.048Z,100323.20
2017-11-21T18:31:51.891Z,100313.20
2017-11-21T18:34:19.659Z,100313.10
2017-11-21T18:36:47.319Z,100313.59
2017-11-21T18:39:14.300Z,100314.52
2017-11-21T18:41:41.156Z,100322.46
2017-11-21T18:44:08.507Z,100315.47
2017-11-21T18:46:35.396Z,100322.06
2017-11-21T18:49:02.266Z,100322.41
2017-11-21T18:51:30.247Z,100325.13
2017-11-21T18:53:57.856Z,100324.57
2017-11-21T18:56:25.137Z,100325.77
2017-11-21T18:58:51.981Z,100323.05
2017-11-21T19:01:19.911Z,100323.44
2017-11-21T19:03:47.312Z,100327.98
2017-11-21T19:06:14.225Z,100318.77
2017-11-21T19:08:41.385Z,100314.78
2017-11-21T19:11:08.344Z,100315.42
2017-11-21T19:13:35.626Z,100313.25
2017-11-21T19:16:02.965Z,100315.89
2017-11-21T19:18:29.841Z,100315.86
2017-11-21T19:20:57.528Z,100314.45
2017-11-21T19:23:24.535Z,100322.12
2017-11-21T19:25:51.938Z,100314.87
2017-11-21T19:28:19.578Z,100317.27
2017-11-21T19:30:46.477Z,100319.36
2017-11-21T19:33:13.490Z,100324.23
2017-11-21T19:35:40.727Z,100312.02
2017-11-21T19:38:07.740Z,100319.97
2017-11-21T19:40:34.836Z,100308.92
2017-11-21T19:43:02.421Z,100314.69
2017-11-21T19:45:30.737Z,100315.89
2017-11-21T19:47:58.536Z,100308.59
2017-11-21T19:50:26.398Z,100313.37
2017-11-21T19:52:53.367Z,100314.20
2017-11-21T19:55:23.112Z,100311.47
2017-11-21T19:57:51.259Z,100302.76
2017-11-21T20:00:20.046Z,100299.02
2017-11-21T20:02:48.964Z,100288.24
2017-11-21T20:05:17.885Z,100288.19
2017-11-21T20:07:46.556Z,100295.82
2017-11-21T20:10:14.345Z,100289.07
2017-11-21T20:12:42.259Z,100290.11
2017-11-21T20:15:10.678Z,100291.34
2017-11-21T20:17:37.706Z,100296.65
2017-11-21T20:20:04.979Z,100282.26
2017-11-21T20:22:31.947Z,100294.96
2017-11-21T20:24:59.703Z,100285.66
2017-11-21T20:27:27.685Z,100284.34
2017-11-21T20:29:56.164Z,100276.49
2017-11-21T20:32:27.881Z,100271.89
2017-11-21T20:34:54.983Z,100277.81
2017-11-21T20:37:23.549Z,100273.18
2017-11-21T20:39:53.047Z,100272.56
2017-11-21T20:42:22.510Z,100270.45
2017-11-21T20:44:49.553Z,100283.00
2017-11-21T20:47:17.238Z,100278.37
2017-11-21T20:49:45.396Z,100278.03
2017-11-21T20:52:14.248Z,100269.83
2017-11-21T20:54:46.038Z,100278.48
2017-11-21T20:57:14.115Z,100283.21
2017-11-21T20:59:41.836Z,100284.31
2017-11-21T21:02:08.860Z,100277.35
2017-11-21T21:04:35.868Z,100272.13
2017-11-21T21:07:03.471Z,100262.96
2017-11-21T21:09:31.295Z,100260.66
2017-11-21T21:11:58.180Z,100261.30
2017-11-21T21:14:25.813Z,100275.05
2017-11-21T21:16:52.728Z,100282.32
2017-11-21T21:19:20.337Z,100284.41
2017-11-21T21:21:47.240Z,100275.63
2017-11-21T21:24:14.089Z,100271.22
2017-11-21T21:26:41.012Z,100270.36
2017-11-21T21:29:07.882Z,100270.36
2017-11-21T21:31:34.741Z,100257.34
2017-11-21T21:34:01.659Z,100265.69
2017-11-21T21:36:29.402Z,100253.20
2017-11-21T21:38:56.264Z,100251.77
2017-11-21T21:41:23.074Z,100251.09
2017-11-21T21:43:51.180Z,100251.89
2017-11-21T21:46:18.101Z,100252.87
2017-11-21T21:48:44.933Z,100240.47
2017-11-21T21:51:11.800Z,100245.26
2017-11-21T21:53:38.672Z,100237.98
2017-11-21T21:56:05.557Z,100240.44
2017-11-21T21:58:32.432Z,100236.94
2017-11-21T22:00:59.856Z,100244.00
2017-11-21T22:03:26.763Z,100235.81
2017-11-21T22:05:53.598Z,100247.50
2017-11-21T22:08:20.453Z,100238.78
2017-11-21T22:10:47.289Z,100241.18
2017-11-21T22:13:14.152Z,100226.61
2017-11-21T22:15:40.973Z,100236.33
2017-11-21T22:18:07.868Z,100233.41
2017-11-21T22:20:34.663Z,100227.44
2017-11-21T22:23:01.484Z,100218.59
2017-11-21T22:25:28.373Z,100232.16
2017-11-21T22:27:55.189Z,100216.60
2017-11-21T22:30:23.246Z,100223.75
2017-11-21T22:32:50.086Z,100214.13
2017-11-21T22:35:16.909Z,100206.61
2017-11-21T22:37:44.473Z,100216.80
2017-11-21T22:40:12.091Z,100213.54
2017-11-21T22:42:38.963Z,100207.09
2017-11-21T22:45:05.825Z,100199.79
2017-11-21T22:47:34.677Z,100196.94
2017-11-21T22:50:01.603Z,100202.30
2017-11-21T22:52:28.472Z,100192.61
2017-11-21T22:54:56.154Z,100182.00
2017-11-21T22:57:26.077Z,100205.12
2017-11-21T22:59:53.232Z,100202.77
2017-11-21T23:02:20.084Z,100205.16
2017-11-21T23:04:47.000Z,100205.34
2017-11-21T23:07:13.914Z,100208.70
2017-11-21T23:09:40.804Z,100207.70
2017-11-21T23:12:07.676Z,100203.81
2017-11-21T23:14:34.565Z,100205.13
2017-11-21T23:17:02.127Z,100201.76
2017-11-21T23:19:29.225Z,100191.05
2017-11-21T23:21:56.174Z,100195.71
2017-11-21T23:24:23.774Z,100187.12
2017-11-21T23:26:50.798Z,100192.42
2017-11-21T23:29:18.578Z,100176.72
2017-11-21T23:31:46.136Z,100173.69
2017-11-21T23:34:16.103Z,100166.78
2017-11-21T23:36:43.550Z,100171.41
2017-11-21T23:39:11.209Z,100178.99
2017-11-21T23:41:38.140Z,100177.43
2017-11-21T23:44:05.625Z,100172.48
2017-11-21T23:46:33.229Z,100172.64
2017-11-21T23:49:01.884Z,100175.59
2017-11-21T23:51:29.595Z,100167.31
2017-11-21T23:53:56.421Z,100166.11
2017-11-21T23:56:24.001Z,100168.56
2017-11-21T23:58:51.608Z,100168.44
